Time;durP1;ratioP1;P1;durP2;ratioP2;P2;SDS_P1;SDS_P2;PMS_P1;PMS_P2;Temp;Humidity;BMP_temperature;BMP_pressure;BME280_temperature;BME280_humidity;BME280_pressure;Samples;Min_cycle;Max_cycle;Signal;HPM_P1;HPM_P2
2022/09/24 00:02:10;;;;;;;;;;;;;;;;;;5509293;28;1125;-69
2022/09/24 00:04:52;;;;;;;;;;;;;;;;;;5509425;28;1107;-69
2022/09/24 00:07:35;;;;;;;;;;;;;;;;;;5500870;28;1314;-69
2022/09/24 00:10:17;;;;;;;;;;;;;;;;;;5509745;28;1136;-68
2022/09/24 00:13:00;;;;;;;;;;;;;;;;;;5510186;28;1145;-69
2022/09/24 00:15:42;;;;;;;;;;;;;;;;;;5508962;28;1148;-69
2022/09/24 00:18:25;;;;;;;;;;;;;;;;;;5504701;28;1449;-69
2022/09/24 00:21:07;;;;;;;;;;;;;;;;;;5504695;28;1977;-69
2022/09/24 00:23:50;;;;;;;;;;;;;;;;;;5509766;28;1100;-69
2022/09/24 00:26:50;;;;;;;;;;;;;;;;;;5509119;28;893;-69
2022/09/24 00:29:33;;;;;;;;;;;;;;;;;;5505291;28;1410;-69
2022/09/24 00:32:16;;;;;;;;;;;;;;;;;;5504075;28;1092;-69
2022/09/24 00:34:58;;;;;;;;;;;;;;;;;;5508540;28;1192;-69
2022/09/24 00:37:41;;;;;;;;;;;;;;;;;;5509476;28;1104;-69
2022/09/24 00:40:23;;;;;;;;;;;;;;;;;;5508718;28;1906;-69
2022/09/24 00:43:06;;;;;;;;;;;;;;;;;;5499948;28;1131;-69
2022/09/24 00:45:49;;;;;;;;;;;;;;;;;;5509209;28;1274;-71
2022/09/24 00:48:33;;;;;;;;;;;;;;;;;;5509091;28;1179;-69
2022/09/24 00:51:15;;;;;;;;;;;;;;;;;;5509006;28;1179;-69
2022/09/24 00:53:57;;;;;;;;;;;;;;;;;;5500457;28;1344;-68
2022/09/24 00:56:40;;;;;;;;;;;;;;;;;;5508730;28;1207;-69
2022/09/24 00:59:23;;;;;;;;;;;;;;;;;;5508862;28;1064;-68
2022/09/24 01:02:06;;;;;;;;;;;;;;;;;;5508993;28;1890;-70
2022/09/24 01:04:48;;;;;;;;;;;;;;;;;;5499791;28;1109;-69
2022/09/24 01:07:35;;;;;;;;;;;;;;;;;;5509679;28;1091;-69
2022/09/24 01:10:46;;;;;;;;;;;;;;;;;;5513219;28;1171;-68
2022/09/24 01:13:20;;;;;;;;;;;;;;;;;;5512895;28;1113;-69
2022/09/24 01:16:03;;;;;;;;;;;;;;;;;;5504174;28;1346;-69
2022/09/24 01:18:45;;;;;;;;;;;;;;;;;;5512781;28;1171;-69
2022/09/24 01:21:28;;;;;;;;;;;;;;;;;;5512668;28;1981;-69
2022/09/24 01:24:11;;;;;;;;;;;;;;;;;;5513005;28;1056;-68
2022/09/24 01:26:54;;;;;;;;;;;;;;;;;;5505113;28;1294;-68
2022/09/24 01:29:40;;;;;;;;;;;;;;;;;;5512530;28;1084;-69
2022/09/24 01:32:23;;;;;;;;;;;;;;;;;;5512845;28;1175;-68
2022/09/24 01:35:09;;;;;;;;;;;;;;;;;;5512269;28;1088;-69
2022/09/24 01:37:51;;;;;;;;;;;;;;;;;;5509773;28;1179;-67
2022/09/24 01:40:34;;;;;;;;;;;;;;;;;;5506705;28;1910;-66
2022/09/24 01:43:16;;;;;;;;;;;;;;;;;;5513404;28;1140;-66
2022/09/24 01:45:59;;;;;;;;;;;;;;;;;;5511867;28;1012;-66
2022/09/24 01:48:41;;;;;;;;;;;;;;;;;;5511837;28;1148;-66
2022/09/24 01:51:24;;;;;;;;;;;;;;;;;;5502604;28;1176;-66
2022/09/24 01:54:06;;;;;;;;;;;;;;;;;;5511310;28;1222;-66
2022/09/24 01:56:50;;;;;;;;;;;;;;;;;;5511486;28;1127;-66
2022/09/24 01:59:32;;;;;;;;;;;;;;;;;;5511457;28;1015;-67
2022/09/24 02:02:15;;;;;;;;;;;;;;;;;;5502364;28;1987;-66
2022/09/24 02:04:57;;;;;;;;;;;;;;;;;;5511842;28;1120;-66
2022/09/24 02:07:40;;;;;;;;;;;;;;;;;;5512159;28;1084;-66
2022/09/24 02:10:22;;;;;;;;;;;;;;;;;;5511363;28;1136;-66
2022/09/24 02:13:05;;;;;;;;;;;;;;;;;;5502918;28;1245;-66
2022/09/24 02:15:47;;;;;;;;;;;;;;;;;;5511509;28;1179;-71
2022/09/24 02:18:30;;;;;;;;;;;;;;;;;;5511592;28;1085;-66
2022/09/24 02:21:12;;;;;;;;;;;;;;;;;;5510957;28;1899;-66
2022/09/24 02:23:55;;;;;;;;;;;;;;;;;;5502756;28;1398;-66
2022/09/24 02:26:37;;;;;;;;;;;;;;;;;;5511027;28;1180;-66
2022/09/24 02:29:22;;;;;;;;;;;;;;;;;;5511460;28;1028;-66
2022/09/24 02:32:04;;;;;;;;;;;;;;;;;;5511149;28;1088;-66
2022/09/24 02:34:46;;;;;;;;;;;;;;;;;;5506934;28;1195;-66
2022/09/24 02:37:28;;;;;;;;;;;;;;;;;;5506986;28;1235;-66
2022/09/24 02:40:11;;;;;;;;;;;;;;;;;;5510902;28;1168;-66
2022/09/24 02:42:53;;;;;;;;;;;;;;;;;;5511381;28;1902;-67
2022/09/24 02:45:36;;;;;;;;;;;;;;;;;;5509376;28;1168;-66
2022/09/24 02:48:19;;;;;;;;;;;;;;;;;;5504932;28;1165;-66
2022/09/24 02:51:03;;;;;;;;;;;;;;;;;;5511327;28;1060;-66
2022/09/24 02:53:45;;;;;;;;;;;;;;;;;;5510613;28;1308;-66
2022/09/24 02:56:27;;;;;;;;;;;;;;;;;;5510800;28;1147;-66
2022/09/24 02:59:11;;;;;;;;;;;;;;;;;;5502248;28;1197;-66
2022/09/24 03:01:53;;;;;;;;;;;;;;;;;;5510449;28;1902;-66
2022/09/24 03:04:36;;;;;;;;;;;;;;;;;;5510563;28;985;-66
2022/09/24 03:07:20;;;;;;;;;;;;;;;;;;5510946;28;1016;-66
2022/09/24 03:10:03;;;;;;;;;;;;;;;;;;5501050;28;1190;-66
2022/09/24 03:12:45;;;;;;;;;;;;;;;;;;5510828;28;1274;-65
2022/09/24 03:15:28;;;;;;;;;;;;;;;;;;5510444;28;1176;-66
2022/09/24 03:18:11;;;;;;;;;;;;;;;;;;5510481;28;1151;-67
2022/09/24 03:20:53;;;;;;;;;;;;;;;;;;5501988;28;1903;-66
2022/09/24 03:23:36;;;;;;;;;;;;;;;;;;5510396;28;1112;-66
2022/09/24 03:26:18;;;;;;;;;;;;;;;;;;5509889;28;1151;-66
2022/09/24 03:29:01;;;;;;;;;;;;;;;;;;5510580;28;1045;-66
2022/09/24 03:31:42;;;;;;;;;;;;;;;;;;5502659;28;1078;-66
2022/09/24 03:34:25;;;;;;;;;;;;;;;;;;5509283;28;1149;-66
2022/09/24 03:37:08;;;;;;;;;;;;;;;;;;5510242;28;1581;-65
2022/09/24 03:39:51;;;;;;;;;;;;;;;;;;5509910;28;1029;-66
2022/09/24 03:42:34;;;;;;;;;;;;;;;;;;5505513;28;1973;-66
2022/09/24 03:45:16;;;;;;;;;;;;;;;;;;5508237;28;1182;-66
2022/09/24 03:47:59;;;;;;;;;;;;;;;;;;5511633;28;1141;-66
2022/09/24 03:50:41;;;;;;;;;;;;;;;;;;5510875;28;1364;-65
2022/09/24 03:53:23;;;;;;;;;;;;;;;;;;5510830;28;1246;-66
2022/09/24 03:56:06;;;;;;;;;;;;;;;;;;5502290;28;1250;-66
2022/09/24 03:58:48;;;;;;;;;;;;;;;;;;5510253;28;1289;-66
2022/09/24 04:01:31;;;;;;;;;;;;;;;;;;5510577;28;1910;-66
2022/09/24 04:04:15;;;;;;;;;;;;;;;;;;5510387;28;1127;-66
2022/09/24 04:06:57;;;;;;;;;;;;;;;;;;5500530;28;1281;-67
2022/09/24 04:09:40;;;;;;;;;;;;;;;;;;5508818;28;1160;-67
2022/09/24 04:12:22;;;;;;;;;;;;;;;;;;5508896;28;1109;-67
2022/09/24 04:15:05;;;;;;;;;;;;;;;;;;5509417;28;1151;-67
2022/09/24 04:17:47;;;;;;;;;;;;;;;;;;5500181;28;1474;-67
2022/09/24 04:20:31;;;;;;;;;;;;;;;;;;5509565;28;1080;-67
2022/09/24 04:23:14;;;;;;;;;;;;;;;;;;5509521;28;1934;-67
2022/09/24 04:25:56;;;;;;;;;;;;;;;;;;5510030;28;1069;-68
2022/09/24 04:28:39;;;;;;;;;;;;;;;;;;5501401;28;1192;-67
2022/09/24 04:31:22;;;;;;;;;;;;;;;;;;5509606;28;1104;-67
2022/09/24 04:34:04;;;;;;;;;;;;;;;;;;5510070;28;1064;-67
2022/09/24 04:36:47;;;;;;;;;;;;;;;;;;5510400;28;1093;-67
2022/09/24 04:39:29;;;;;;;;;;;;;;;;;;5505836;28;1311;-67
2022/09/24 04:42:12;;;;;;;;;;;;;;;;;;5505141;28;1902;-67
2022/09/24 04:44:54;;;;;;;;;;;;;;;;;;5514309;28;1914;-67
2022/09/24 04:47:39;;;;;;;;;;;;;;;;;;5514053;28;1112;-67
2022/09/24 04:50:21;;;;;;;;;;;;;;;;;;5514868;28;1083;-67
2022/09/24 04:53:04;;;;;;;;;;;;;;;;;;5503921;28;1352;-67
2022/09/24 04:55:46;;;;;;;;;;;;;;;;;;5513852;28;1092;-67
2022/09/24 04:58:29;;;;;;;;;;;;;;;;;;5514019;28;784;-67
2022/09/24 05:01:12;;;;;;;;;;;;;;;;;;5513995;28;1125;-68
2022/09/24 05:03:55;;;;;;;;;;;;;;;;;;5505380;28;1931;-67
2022/09/24 05:06:37;;;;;;;;;;;;;;;;;;5513651;28;1116;-67
2022/09/24 05:09:19;;;;;;;;;;;;;;;;;;5514048;28;1159;-67
2022/09/24 05:12:02;;;;;;;;;;;;;;;;;;5514407;28;1028;-67
2022/09/24 05:14:44;;;;;;;;;;;;;;;;;;5504880;28;1437;-68
2022/09/24 05:17:27;;;;;;;;;;;;;;;;;;5513520;28;1136;-67
2022/09/24 05:20:10;;;;;;;;;;;;;;;;;;5513913;28;1101;-67
2022/09/24 05:22:52;;;;;;;;;;;;;;;;;;5513515;28;1902;-67
2022/09/24 05:27:07;;;;;;;;;;;;;;;;;;5505453;28;1158;-67
2022/09/24 05:28:38;;;;;;;;;;;;;;;;;;5513841;28;1371;-67
2022/09/24 05:31:20;;;;;;;;;;;;;;;;;;5513806;28;1288;-65
2022/09/24 05:34:04;;;;;;;;;;;;;;;;;;5513220;28;1081;-65
2022/09/24 05:36:46;;;;;;;;;;;;;;;;;;5505009;28;1176;-66
2022/09/24 05:39:28;;;;;;;;;;;;;;;;;;5511806;28;1160;-66
2022/09/24 05:42:15;;;;;;;;;;;;;;;;;;5512826;28;1980;-66
2022/09/24 05:44:57;;;;;;;;;;;;;;;;;;5512125;28;1013;-66
2022/09/24 05:47:40;;;;;;;;;;;;;;;;;;5507588;28;1164;-66
2022/09/24 05:50:22;;;;;;;;;;;;;;;;;;5507991;28;1098;-67
2022/09/24 05:53:05;;;;;;;;;;;;;;;;;;5511908;28;1233;-66
2022/09/24 05:55:47;;;;;;;;;;;;;;;;;;5511232;28;1143;-67
2022/09/24 05:58:30;;;;;;;;;;;;;;;;;;5512604;28;1001;-66
2022/09/24 06:01:13;;;;;;;;;;;;;;;;;;5503004;28;1296;-67
2022/09/24 06:03:55;;;;;;;;;;;;;;;;;;5511908;28;1899;-67
2022/09/24 06:06:38;;;;;;;;;;;;;;;;;;5511962;28;1096;-67
2022/09/24 06:09:20;;;;;;;;;;;;;;;;;;5512582;28;1001;-69
2022/09/24 06:12:03;;;;;;;;;;;;;;;;;;5503708;28;1182;-67
2022/09/24 06:14:45;;;;;;;;;;;;;;;;;;5511910;28;1076;-66
2022/09/24 06:17:30;;;;;;;;;;;;;;;;;;5512199;28;1172;-66
2022/09/24 06:20:12;;;;;;;;;;;;;;;;;;5512649;28;1084;-66
2022/09/24 06:22:56;;;;;;;;;;;;;;;;;;5502814;28;1979;-67
2022/09/24 06:25:38;;;;;;;;;;;;;;;;;;5512128;28;1001;-67
2022/09/24 06:28:21;;;;;;;;;;;;;;;;;;5512195;28;1100;-66
2022/09/24 06:31:04;;;;;;;;;;;;;;;;;;5511757;28;1109;-67
2022/09/24 06:33:46;;;;;;;;;;;;;;;;;;5502813;28;1286;-67
2022/09/24 06:36:29;;;;;;;;;;;;;;;;;;5511718;28;1117;-65
2022/09/24 06:39:11;;;;;;;;;;;;;;;;;;5512135;28;1160;-67
2022/09/24 06:41:55;;;;;;;;;;;;;;;;;;5511852;28;1167;-67
2022/09/24 06:44:37;;;;;;;;;;;;;;;;;;5507425;28;1978;-65
2022/09/24 06:47:20;;;;;;;;;;;;;;;;;;5507194;28;1088;-66
2022/09/24 06:50:02;;;;;;;;;;;;;;;;;;5511752;28;1069;-67
2022/09/24 06:52:45;;;;;;;;;;;;;;;;;;5510416;28;1327;-66
2022/09/24 06:55:27;;;;;;;;;;;;;;;;;;5509115;28;981;-67
2022/09/24 06:58:10;;;;;;;;;;;;;;;;;;5505566;28;1376;-66
2022/09/24 07:00:53;;;;;;;;;;;;;;;;;;5510588;28;1192;-67
2022/09/24 07:03:37;;;;;;;;;;;;;;;;;;5510747;28;1977;-67
2022/09/24 07:06:20;;;;;;;;;;;;;;;;;;5510755;28;1184;-67
2022/09/24 07:09:03;;;;;;;;;;;;;;;;;;5501891;28;1065;-66
2022/09/24 07:11:47;;;;;;;;;;;;;;;;;;5511079;28;1348;-66
2022/09/24 07:14:29;;;;;;;;;;;;;;;;;;5510412;28;1063;-66
2022/09/24 07:17:12;;;;;;;;;;;;;;;;;;5510927;28;1021;-66
2022/09/24 07:19:54;;;;;;;;;;;;;;;;;;5501942;28;1218;-67
2022/09/24 07:22:38;;;;;;;;;;;;;;;;;;5527114;28;1981;-67
2022/09/24 07:25:20;;;;;;;;;;;;;;;;;;5532469;28;1116;-67
2022/09/24 07:28:03;;;;;;;;;;;;;;;;;;5532376;28;1062;-67
2022/09/24 07:30:45;;;;;;;;;;;;;;;;;;5523182;28;1333;-66
2022/09/24 07:33:28;;;;;;;;;;;;;;;;;;5532265;28;1121;-66
2022/09/24 07:36:10;;;;;;;;;;;;;;;;;;5532078;28;1100;-66
2022/09/24 07:38:53;;;;;;;;;;;;;;;;;;5532224;28;1300;-67
2022/09/24 07:41:36;;;;;;;;;;;;;;;;;;5525351;28;1278;-67
2022/09/24 07:44:23;;;;;;;;;;;;;;;;;;5531758;28;1930;-67
2022/09/24 07:47:06;;;;;;;;;;;;;;;;;;5532433;28;1645;-66
2022/09/24 07:49:50;;;;;;;;;;;;;;;;;;5531913;28;1058;-67
2022/09/24 07:52:32;;;;;;;;;;;;;;;;;;5526577;28;1292;-67
2022/09/24 07:55:15;;;;;;;;;;;;;;;;;;5527587;28;1188;-66
2022/09/24 07:57:57;;;;;;;;;;;;;;;;;;5531167;28;1116;-67
2022/09/24 08:00:40;;;;;;;;;;;;;;;;;;5532314;28;1089;-66
2022/09/24 08:03:22;;;;;;;;;;;;;;;;;;5532470;28;1910;-67
2022/09/24 08:06:05;;;;;;;;;;;;;;;;;;5523795;28;1175;-66
2022/09/24 08:08:47;;;;;;;;;;;;;;;;;;5531576;28;1086;-66
2022/09/24 08:11:30;;;;;;;;;;;;;;;;;;5531725;28;1081;-65
2022/09/24 08:14:12;;;;;;;;;;;;;;;;;;5531646;28;1160;-66
2022/09/24 08:16:55;;;;;;;;;;;;;;;;;;5523467;28;1324;-66
2022/09/24 08:19:39;;;;;;;;;;;;;;;;;;5531294;28;1129;-65
2022/09/24 08:22:21;;;;;;;;;;;;;;;;;;5532556;28;986;-65
2022/09/24 08:25:04;;;;;;;;;;;;;;;;;;5531285;28;1975;-65
2022/09/24 08:27:47;;;;;;;;;;;;;;;;;;5524032;28;1232;-66
2022/09/24 08:30:29;;;;;;;;;;;;;;;;;;5531729;28;1162;-66
2022/09/24 08:33:12;;;;;;;;;;;;;;;;;;5532016;28;1076;-66
2022/09/24 08:35:54;;;;;;;;;;;;;;;;;;5531667;28;1128;-65
2022/09/24 08:38:37;;;;;;;;;;;;;;;;;;5523118;28;1328;-65
2022/09/24 08:41:20;;;;;;;;;;;;;;;;;;5530386;28;1184;-66
2022/09/24 08:44:02;;;;;;;;;;;;;;;;;;5530600;28;1902;-66
2022/09/24 08:49:45;;;;;;;;;;;;;;;;;;5523149;28;1418;-67
2022/09/24 08:52:27;;;;;;;;;;;;;;;;;;5529787;28;1247;-64
2022/09/24 08:55:10;;;;;;;;;;;;;;;;;;5531983;28;965;-67
2022/09/24 08:57:53;;;;;;;;;;;;;;;;;;5532066;28;1117;-66
2022/09/24 09:00:35;;;;;;;;;;;;;;;;;;5527513;28;1409;-65
2022/09/24 09:03:17;;;;;;;;;;;;;;;;;;5526314;28;1977;-65
2022/09/24 09:06:00;;;;;;;;;;;;;;;;;;5531060;28;1077;-65
2022/09/24 09:08:42;;;;;;;;;;;;;;;;;;5531707;28;1006;-65
2022/09/24 09:11:45;;;;;;;;;;;;;;;;;;5528814;28;1394;-66
2022/09/24 09:14:27;;;;;;;;;;;;;;;;;;5526183;28;1186;-66
2022/09/24 09:17:12;;;;;;;;;;;;;;;;;;5531621;28;1078;-66
2022/09/24 09:19:55;;;;;;;;;;;;;;;;;;5532218;28;1167;-65
2022/09/24 09:22:37;;;;;;;;;;;;;;;;;;5531387;28;1018;-66
2022/09/24 09:25:20;;;;;;;;;;;;;;;;;;5523341;28;1910;-67
2022/09/24 09:28:03;;;;;;;;;;;;;;;;;;5530949;28;1121;-65
2022/09/24 09:30:45;;;;;;;;;;;;;;;;;;5533634;28;1026;-70
2022/09/24 09:33:28;;;;;;;;;;;;;;;;;;5535874;28;1061;-65
2022/09/24 09:36:10;;;;;;;;;;;;;;;;;;5526382;28;1174;-66
2022/09/24 09:38:53;;;;;;;;;;;;;;;;;;5535308;28;1125;-66
2022/09/24 09:41:36;;;;;;;;;;;;;;;;;;5533834;28;1172;-66
2022/09/24 09:44:18;;;;;;;;;;;;;;;;;;5534342;28;1976;-65
2022/09/24 09:47:01;;;;;;;;;;;;;;;;;;5526683;28;1144;-66
2022/09/24 09:49:43;;;;;;;;;;;;;;;;;;5533894;28;1117;-66
2022/09/24 09:52:26;;;;;;;;;;;;;;;;;;5534982;28;1253;-66
2022/09/24 09:55:10;;;;;;;;;;;;;;;;;;5533893;28;1364;-66
2022/09/24 09:57:52;;;;;;;;;;;;;;;;;;5527481;28;1181;-67
2022/09/24 10:00:35;;;;;;;;;;;;;;;;;;5533767;28;1182;-65
2022/09/24 10:03:17;;;;;;;;;;;;;;;;;;5534422;28;1125;-66
2022/09/24 10:06:00;;;;;;;;;;;;;;;;;;5533946;28;1978;-66
2022/09/24 10:08:42;;;;;;;;;;;;;;;;;;5529570;28;1121;-66
2022/09/24 10:11:25;;;;;;;;;;;;;;;;;;5530409;28;1253;-66
2022/09/24 10:14:07;;;;;;;;;;;;;;;;;;5534453;28;1089;-66
2022/09/24 10:16:50;;;;;;;;;;;;;;;;;;5534337;28;887;-66
2022/09/24 10:19:32;;;;;;;;;;;;;;;;;;5533302;28;1108;-66
2022/09/24 10:22:15;;;;;;;;;;;;;;;;;;5525050;28;1183;-66
2022/09/24 10:24:58;;;;;;;;;;;;;;;;;;5534696;28;1989;-65
2022/09/24 10:27:41;;;;;;;;;;;;;;;;;;5534886;28;1058;-67
2022/09/24 10:30:34;;;;;;;;;;;;;;;;;;5533755;28;1086;-67
2022/09/24 10:33:17;;;;;;;;;;;;;;;;;;5524431;28;1235;-66
2022/09/24 10:36:00;;;;;;;;;;;;;;;;;;5533480;28;1018;-67
2022/09/24 10:38:42;;;;;;;;;;;;;;;;;;5533140;28;1121;-67
2022/09/24 10:41:26;;;;;;;;;;;;;;;;;;5532321;28;1155;-65
2022/09/24 10:44:10;;;;;;;;;;;;;;;;;;5524275;28;1974;-65
2022/09/24 10:46:52;;;;;;;;;;;;;;;;;;5532821;28;1101;-65
2022/09/24 10:49:35;;;;;;;;;;;;;;;;;;5532435;28;1101;-66
2022/09/24 10:52:18;;;;;;;;;;;;;;;;;;5532674;28;1244;-65
2022/09/24 10:55:00;;;;;;;;;;;;;;;;;;5523276;28;1309;-66
2022/09/24 10:57:43;;;;;;;;;;;;;;;;;;5531937;28;1172;-65
2022/09/24 11:00:25;;;;;;;;;;;;;;;;;;5532609;28;1248;-66
2022/09/24 11:03:08;;;;;;;;;;;;;;;;;;5533179;28;1096;-65
2022/09/24 11:05:51;;;;;;;;;;;;;;;;;;5525842;28;1902;-66
2022/09/24 11:08:34;;;;;;;;;;;;;;;;;;5530834;28;1300;-66
2022/09/24 11:11:16;;;;;;;;;;;;;;;;;;5531809;28;1078;-66
2022/09/24 11:13:59;;;;;;;;;;;;;;;;;;5532072;28;1212;-66
2022/09/24 11:16:41;;;;;;;;;;;;;;;;;;5528218;28;1153;-66
2022/09/24 11:19:24;;;;;;;;;;;;;;;;;;5527819;28;1104;-66
2022/09/24 11:22:07;;;;;;;;;;;;;;;;;;5533169;28;1084;-65
2022/09/24 11:24:49;;;;;;;;;;;;;;;;;;5534950;28;1902;-66
2022/09/24 11:27:32;;;;;;;;;;;;;;;;;;5535781;28;1186;-67
2022/09/24 11:30:14;;;;;;;;;;;;;;;;;;5526473;28;1369;-66
2022/09/24 11:32:57;;;;;;;;;;;;;;;;;;5534978;28;1018;-67
2022/09/24 11:35:39;;;;;;;;;;;;;;;;;;5536270;28;1121;-65
2022/09/24 11:38:22;;;;;;;;;;;;;;;;;;5537419;28;1140;-69
2022/09/24 11:41:04;;;;;;;;;;;;;;;;;;5526463;28;1199;-67
2022/09/24 11:43:47;;;;;;;;;;;;;;;;;;5534961;28;1638;-66
2022/09/24 11:46:30;;;;;;;;;;;;;;;;;;5534899;28;1906;-66
2022/09/24 11:49:12;;;;;;;;;;;;;;;;;;5534292;28;1100;-66
2022/09/24 11:51:55;;;;;;;;;;;;;;;;;;5527380;28;1297;-67
2022/09/24 11:54:37;;;;;;;;;;;;;;;;;;5534077;28;1273;-66
2022/09/24 11:57:20;;;;;;;;;;;;;;;;;;5535007;28;1121;-69
2022/09/24 12:00:05;;;;;;;;;;;;;;;;;;5536574;28;1391;-67
2022/09/24 12:02:48;;;;;;;;;;;;;;;;;;5525809;28;1433;-66
2022/09/24 12:05:31;;;;;;;;;;;;;;;;;;5535374;28;1953;-67
2022/09/24 12:08:14;;;;;;;;;;;;;;;;;;5532983;28;1006;-66
2022/09/24 12:10:56;;;;;;;;;;;;;;;;;;5531800;28;1109;-66
2022/09/24 12:13:40;;;;;;;;;;;;;;;;;;5527828;28;1278;-66
2022/09/24 12:16:23;;;;;;;;;;;;;;;;;;5527166;28;1095;-68
2022/09/24 12:19:05;;;;;;;;;;;;;;;;;;5530933;28;1049;-66
2022/09/24 12:21:48;;;;;;;;;;;;;;;;;;5531793;28;1058;-66
2022/09/24 12:24:30;;;;;;;;;;;;;;;;;;5530560;28;1199;-66
2022/09/24 12:27:13;;;;;;;;;;;;;;;;;;5525198;28;1977;-66
2022/09/24 12:32:56;;;;;;;;;;;;;;;;;;5531725;28;1350;-65
2022/09/24 12:35:38;;;;;;;;;;;;;;;;;;5532137;28;1153;-66
2022/09/24 12:38:21;;;;;;;;;;;;;;;;;;5523209;28;1210;-65
2022/09/24 12:41:04;;;;;;;;;;;;;;;;;;5531946;28;1199;-66
2022/09/24 12:43:46;;;;;;;;;;;;;;;;;;5532349;28;1113;-66
2022/09/24 12:46:29;;;;;;;;;;;;;;;;;;5531657;28;1982;-66
2022/09/24 12:49:11;;;;;;;;;;;;;;;;;;5522133;28;1281;-66
2022/09/24 12:51:54;;;;;;;;;;;;;;;;;;5532087;28;1326;-67
2022/09/24 12:54:37;;;;;;;;;;;;;;;;;;5530647;28;1105;-66
2022/09/24 12:57:19;;;;;;;;;;;;;;;;;;5531243;28;1165;-67
2022/09/24 13:00:06;;;;;;;;;;;;;;;;;;5522748;28;1541;-73
2022/09/24 13:02:50;;;;;;;;;;;;;;;;;;5530455;28;1092;-67
2022/09/24 13:05:33;;;;;;;;;;;;;;;;;;5533883;28;1996;-67
2022/09/24 13:08:16;;;;;;;;;;;;;;;;;;5534945;28;1125;-67
2022/09/24 13:11:04;;;;;;;;;;;;;;;;;;5527337;28;1144;-66
2022/09/24 13:13:47;;;;;;;;;;;;;;;;;;5534755;28;1188;-71
2022/09/24 13:16:30;;;;;;;;;;;;;;;;;;5535029;28;1082;-66
2022/09/24 13:19:14;;;;;;;;;;;;;;;;;;5535024;28;1097;-67
2022/09/24 13:21:57;;;;;;;;;;;;;;;;;;5528798;28;1233;-66
2022/09/24 13:24:40;;;;;;;;;;;;;;;;;;5532130;28;1243;-66
2022/09/24 13:27:22;;;;;;;;;;;;;;;;;;5535371;28;1906;-65
2022/09/24 13:30:05;;;;;;;;;;;;;;;;;;5535177;28;1109;-65
2022/09/24 13:32:48;;;;;;;;;;;;;;;;;;5530511;28;1265;-67
2022/09/24 13:35:30;;;;;;;;;;;;;;;;;;5529745;28;1291;-67
2022/09/24 13:38:13;;;;;;;;;;;;;;;;;;5534994;28;1181;-66
2022/09/24 13:40:56;;;;;;;;;;;;;;;;;;5535317;28;1188;-64
2022/09/24 13:43:39;;;;;;;;;;;;;;;;;;5534890;28;1018;-66
2022/09/24 13:46:21;;;;;;;;;;;;;;;;;;5527056;28;1910;-66
2022/09/24 13:49:05;;;;;;;;;;;;;;;;;;5535279;28;1109;-66
2022/09/24 13:51:47;;;;;;;;;;;;;;;;;;5534664;28;1311;-67
2022/09/24 13:54:33;;;;;;;;;;;;;;;;;;5533256;28;1231;-67
2022/09/24 13:57:15;;;;;;;;;;;;;;;;;;5525481;28;1330;-67
2022/09/24 13:59:58;;;;;;;;;;;;;;;;;;5533776;28;1176;-71
2022/09/24 14:02:40;;;;;;;;;;;;;;;;;;5535277;28;1124;-71
2022/09/24 14:05:23;;;;;;;;;;;;;;;;;;5539929;28;1070;-66
2022/09/24 14:08:05;;;;;;;;;;;;;;;;;;5523857;28;1985;-67
2022/09/24 14:10:49;;;;;;;;;;;;;;;;;;5533745;28;1161;-67
2022/09/24 14:13:32;;;;;;;;;;;;;;;;;;5533534;28;1120;-67
2022/09/24 14:16:14;;;;;;;;;;;;;;;;;;5532287;28;1091;-65
2022/09/24 14:18:57;;;;;;;;;;;;;;;;;;5524905;28;1378;-65
2022/09/24 14:21:40;;;;;;;;;;;;;;;;;;5532486;28;1168;-68
2022/09/24 14:24:23;;;;;;;;;;;;;;;;;;5532467;28;1109;-65
2022/09/24 14:27:05;;;;;;;;;;;;;;;;;;5532481;28;1907;-66
2022/09/24 14:29:48;;;;;;;;;;;;;;;;;;5528558;28;1344;-66
2022/09/24 14:32:30;;;;;;;;;;;;;;;;;;5527680;28;1191;-66
2022/09/24 14:35:13;;;;;;;;;;;;;;;;;;5532588;28;1157;-66
2022/09/24 14:37:55;;;;;;;;;;;;;;;;;;5532644;28;1094;-66
2022/09/24 14:40:38;;;;;;;;;;;;;;;;;;5532827;28;1088;-68
2022/09/24 14:43:20;;;;;;;;;;;;;;;;;;5524201;28;1362;-66
2022/09/24 14:46:03;;;;;;;;;;;;;;;;;;5531945;28;1997;-66
2022/09/24 14:48:45;;;;;;;;;;;;;;;;;;5532692;28;1080;-66
2022/09/24 14:51:28;;;;;;;;;;;;;;;;;;5532994;28;1069;-66
2022/09/24 14:54:10;;;;;;;;;;;;;;;;;;5521633;28;1759;-67
2022/09/24 14:56:53;;;;;;;;;;;;;;;;;;5531996;28;1121;-67
2022/09/24 14:59:35;;;;;;;;;;;;;;;;;;5532027;28;1159;-67
2022/09/24 15:02:18;;;;;;;;;;;;;;;;;;5532607;28;1025;-67
2022/09/24 15:05:01;;;;;;;;;;;;;;;;;;5523004;28;1421;-66
2022/09/24 15:07:47;;;;;;;;;;;;;;;;;;5531608;28;1906;-66
2022/09/24 15:10:30;;;;;;;;;;;;;;;;;;5532552;28;1121;-66
2022/09/24 15:13:12;;;;;;;;;;;;;;;;;;5532223;28;1108;-67
2022/09/24 15:15:55;;;;;;;;;;;;;;;;;;5523113;28;1268;-66
2022/09/24 15:18:37;;;;;;;;;;;;;;;;;;5531746;28;1077;-66
2022/09/24 15:21:20;;;;;;;;;;;;;;;;;;5532570;28;1054;-67
2022/09/24 15:24:03;;;;;;;;;;;;;;;;;;5531618;28;1184;-66
2022/09/24 15:26:46;;;;;;;;;;;;;;;;;;5526930;28;1906;-66
2022/09/24 15:29:28;;;;;;;;;;;;;;;;;;5526817;28;1109;-66
2022/09/24 15:32:11;;;;;;;;;;;;;;;;;;5532095;28;1329;-67
2022/09/24 15:34:53;;;;;;;;;;;;;;;;;;5531808;28;1021;-67
2022/09/24 15:37:36;;;;;;;;;;;;;;;;;;5528538;28;1295;-68
2022/09/24 15:40:21;;;;;;;;;;;;;;;;;;5525642;28;1212;-66
2022/09/24 15:43:04;;;;;;;;;;;;;;;;;;5531493;28;1117;-65
2022/09/24 15:45:46;;;;;;;;;;;;;;;;;;5531143;28;1121;-67
2022/09/24 15:48:29;;;;;;;;;;;;;;;;;;5530924;28;1906;-66
2022/09/24 15:51:11;;;;;;;;;;;;;;;;;;5522325;28;1306;-66
2022/09/24 15:53:57;;;;;;;;;;;;;;;;;;5531054;28;1247;-67
2022/09/24 15:56:41;;;;;;;;;;;;;;;;;;5531127;28;1089;-67
2022/09/24 15:59:26;;;;;;;;;;;;;;;;;;5531373;28;1091;-67
2022/09/24 16:02:09;;;;;;;;;;;;;;;;;;5522596;28;1130;-66
2022/09/24 16:04:52;;;;;;;;;;;;;;;;;;5531231;28;1171;-66
2022/09/24 16:07:34;;;;;;;;;;;;;;;;;;5530517;28;1989;-66
2022/09/24 16:10:16;;;;;;;;;;;;;;;;;;5531537;28;1144;-66
2022/09/24 16:12:59;;;;;;;;;;;;;;;;;;5522457;28;1380;-66
2022/09/24 16:15:41;;;;;;;;;;;;;;;;;;5530531;28;1168;-66
2022/09/24 16:18:24;;;;;;;;;;;;;;;;;;5531609;28;1168;-66
2022/09/24 16:21:07;;;;;;;;;;;;;;;;;;5531136;28;1152;-66
2022/09/24 16:23:49;;;;;;;;;;;;;;;;;;5522152;28;1238;-66
2022/09/24 16:26:33;;;;;;;;;;;;;;;;;;5529956;28;1330;-66
2022/09/24 16:29:16;;;;;;;;;;;;;;;;;;5530359;28;1974;-66
2022/09/24 16:32:00;;;;;;;;;;;;;;;;;;5530731;28;1117;-66
2022/09/24 16:34:43;;;;;;;;;;;;;;;;;;5526808;28;1446;-67
2022/09/24 16:37:25;;;;;;;;;;;;;;;;;;5525957;28;1322;-66
2022/09/24 16:40:08;;;;;;;;;;;;;;;;;;5537142;28;1084;-69
2022/09/24 16:42:51;;;;;;;;;;;;;;;;;;5538303;28;1082;-66
2022/09/24 16:45:33;;;;;;;;;;;;;;;;;;5537223;28;1322;-66
2022/09/24 16:48:16;;;;;;;;;;;;;;;;;;5527840;28;1975;-66
2022/09/24 16:50:58;;;;;;;;;;;;;;;;;;5536926;28;1274;-67
2022/09/24 16:53:41;;;;;;;;;;;;;;;;;;5538311;28;1304;-66
2022/09/24 16:56:29;;;;;;;;;;;;;;;;;;5537577;28;1121;-66
2022/09/24 16:59:11;;;;;;;;;;;;;;;;;;5528594;28;1235;-67
2022/09/24 17:01:54;;;;;;;;;;;;;;;;;;5537317;28;1168;-66
2022/09/24 17:04:36;;;;;;;;;;;;;;;;;;5537175;28;1125;-65
2022/09/24 17:07:19;;;;;;;;;;;;;;;;;;5536529;28;1954;-66
2022/09/24 17:10:12;;;;;;;;;;;;;;;;;;5528513;28;1194;-66
2022/09/24 17:12:55;;;;;;;;;;;;;;;;;;5536900;28;1105;-65
2022/09/24 17:15:37;;;;;;;;;;;;;;;;;;5537211;28;1065;-66
2022/09/24 17:18:20;;;;;;;;;;;;;;;;;;5537574;28;1002;-65
2022/09/24 17:21:03;;;;;;;;;;;;;;;;;;5527366;28;1277;-65
2022/09/24 17:23:45;;;;;;;;;;;;;;;;;;5537973;28;1030;-65
2022/09/24 17:26:28;;;;;;;;;;;;;;;;;;5537501;28;990;-66
2022/09/24 17:29:10;;;;;;;;;;;;;;;;;;5535850;28;1903;-66
2022/09/24 17:31:53;;;;;;;;;;;;;;;;;;5530113;28;1173;-67
2022/09/24 17:34:35;;;;;;;;;;;;;;;;;;5535587;28;1594;-66
2022/09/24 17:37:18;;;;;;;;;;;;;;;;;;5536364;28;1101;-66
2022/09/24 17:40:01;;;;;;;;;;;;;;;;;;5536860;28;1134;-66
2022/09/24 17:42:45;;;;;;;;;;;;;;;;;;5532335;28;1374;-66
2022/09/24 17:45:28;;;;;;;;;;;;;;;;;;5531641;28;1081;-66
2022/09/24 17:48:10;;;;;;;;;;;;;;;;;;5536754;28;1898;-66
2022/09/24 17:50:53;;;;;;;;;;;;;;;;;;5534707;28;1141;-66
2022/09/24 17:53:35;;;;;;;;;;;;;;;;;;5535798;28;1303;-66
2022/09/24 17:56:18;;;;;;;;;;;;;;;;;;5527324;28;1184;-66
2022/09/24 17:59:00;;;;;;;;;;;;;;;;;;5536543;28;1135;-66
2022/09/24 18:01:43;;;;;;;;;;;;;;;;;;5535648;28;1279;-66
2022/09/24 18:04:29;;;;;;;;;;;;;;;;;;5535338;28;1132;-66
2022/09/24 18:07:12;;;;;;;;;;;;;;;;;;5527965;28;1179;-66
2022/09/24 18:09:55;;;;;;;;;;;;;;;;;;5535660;28;1898;-66
2022/09/24 18:12:37;;;;;;;;;;;;;;;;;;5535025;28;1082;-66
2022/09/24 18:15:20;;;;;;;;;;;;;;;;;;5535351;28;1180;-66
2022/09/24 18:18:03;;;;;;;;;;;;;;;;;;5525990;28;1168;-66
2022/09/24 18:20:45;;;;;;;;;;;;;;;;;;5534397;28;1334;-66
2022/09/24 18:23:28;;;;;;;;;;;;;;;;;;5535470;28;1148;-68
2022/09/24 18:26:10;;;;;;;;;;;;;;;;;;5535518;28;1086;-67
2022/09/24 18:28:53;;;;;;;;;;;;;;;;;;5526185;28;1906;-67
2022/09/24 18:31:35;;;;;;;;;;;;;;;;;;5535343;28;1171;-66
2022/09/24 18:34:18;;;;;;;;;;;;;;;;;;5535148;28;1017;-66
2022/09/24 18:37:00;;;;;;;;;;;;;;;;;;5536063;28;1114;-67
2022/09/24 18:39:43;;;;;;;;;;;;;;;;;;5531690;28;1187;-67
2022/09/24 18:42:26;;;;;;;;;;;;;;;;;;5530653;28;1112;-67
2022/09/24 18:45:09;;;;;;;;;;;;;;;;;;5535871;28;1072;-68
2022/09/24 18:47:52;;;;;;;;;;;;;;;;;;5535686;28;1886;-66
2022/09/24 18:50:34;;;;;;;;;;;;;;;;;;5534500;28;1189;-66
2022/09/24 18:53:17;;;;;;;;;;;;;;;;;;5526304;28;1276;-67
2022/09/24 18:55:59;;;;;;;;;;;;;;;;;;5534928;28;1125;-67
2022/09/24 18:58:42;;;;;;;;;;;;;;;;;;5534364;28;1148;-67